sensor_id;sensor_type;location;lat;lon;timestamp;pressure;altitude;pressure_sealevel;temperature;humidity
41632;BME280;37452;51.938;4.624;2023-07-20T00:02:05;76255.34;;;-142.75;100.00
41632;BME280;37452;51.938;4.624;2023-07-20T00:04:32;76251.41;;;-142.75;100.00
41632;BME280;37452;51.938;4.624;2023-07-20T00:06:58;76271.09;;;-142.75;100.00
41632;BME280;37452;51.938;4.624;2023-07-20T00:09:24;76263.22;;;-142.75;100.00
41632;BME280;37452;51.938;4.624;2023-07-20T00:11:50;76267.16;;;-142.75;100.00
41632;BME280;37452;51.938;4.624;2023-07-20T00:14:17;76259.28;;;-142.75;100.00
41632;BME280;37452;51.938;4.624;2023-07-20T00:16:43;76247.47;;;-142.75;100.00
41632;BME280;37452;51.938;4.624;2023-07-20T00:19:08;76239.59;;;-142.75;100.00
41632;BME280;37452;51.938;4.624;2023-07-20T00:21:35;76245.50;;;-142.75;100.00
41632;BME280;37452;51.938;4.624;2023-07-20T00:24:01;76251.41;;;-142.75;100.00
41632;BME280;37452;51.938;4.624;2023-07-20T00:26:26;76251.41;;;-142.75;100.00
41632;BME280;37452;51.938;4.624;2023-07-20T00:28:51;76235.66;;;-142.75;100.00
41632;BME280;37452;51.938;4.624;2023-07-20T00:31:17;76233.69;;;-142.75;100.00
41632;BME280;37452;51.938;4.624;2023-07-20T00:33:42;76229.75;;;-142.75;100.00
41632;BME280;37452;51.938;4.624;2023-07-20T00:36:08;76247.47;;;-142.75;100.00
41632;BME280;37452;51.938;4.624;2023-07-20T00:38:33;76217.94;;;-142.75;100.00
41632;BME280;37452;51.938;4.624;2023-07-20T00:40:58;76225.81;;;-142.75;100.00
41632;BME280;37452;51.938;4.624;2023-07-20T00:43:24;76231.72;;;-142.75;100.00
41632;BME280;37452;51.938;4.624;2023-07-20T00:45:49;76247.47;;;-142.75;100.00
41632;BME280;37452;51.938;4.624;2023-07-20T00:48:14;76255.34;;;-142.75;100.00
41632;BME280;37452;51.938;4.624;2023-07-20T00:50:40;76257.31;;;-142.75;100.00
41632;BME280;37452;51.938;4.624;2023-07-20T00:53:07;76253.38;;;-142.75;100.00
41632;BME280;37452;51.938;4.624;2023-07-20T00:55:33;76271.09;;;-142.75;100.00
41632;BME280;37452;51.938;4.624;2023-07-20T00:57:59;76255.34;;;-142.75;100.00
41632;BME280;37452;51.938;4.624;2023-07-20T01:00:25;76265.19;;;-142.75;100.00
41632;BME280;37452;51.938;4.624;2023-07-20T01:02:51;76261.25;;;-142.75;100.00
41632;BME280;37452;51.938;4.624;2023-07-20T01:05:17;76265.19;;;-142.75;100.00
41632;BME280;37452;51.938;4.624;2023-07-20T01:07:53;76278.97;;;-142.75;100.00
41632;BME280;37452;51.938;4.624;2023-07-20T01:10:40;76267.16;;;-142.75;100.00
41632;BME280;37452;51.938;4.624;2023-07-20T01:13:09;76284.88;;;-142.75;100.00
41632;BME280;37452;51.938;4.624;2023-07-20T01:15:35;76304.56;;;-142.75;100.00
41632;BME280;37452;51.938;4.624;2023-07-20T01:18:00;76286.84;;;-142.75;100.00
41632;BME280;37452;51.938;4.624;2023-07-20T01:20:27;76298.66;;;-142.75;100.00
41632;BME280;37452;51.938;4.624;2023-07-20T01:28:41;76300.63;;;-142.75;100.00
41632;BME280;37452;51.938;4.624;2023-07-20T01:31:25;76298.66;;;-142.75;100.00
41632;BME280;37452;51.938;4.624;2023-07-20T01:33:54;76300.63;;;-142.75;100.00
41632;BME280;37452;51.938;4.624;2023-07-20T01:36:22;76312.44;;;-142.75;100.00
41632;BME280;37452;51.938;4.624;2023-07-20T01:38:49;76326.22;;;-142.75;100.00
41632;BME280;37452;51.938;4.624;2023-07-20T01:41:15;76324.25;;;-142.75;100.00
41632;BME280;37452;51.938;4.624;2023-07-20T01:43:40;76326.22;;;-142.75;100.00
41632;BME280;37452;51.938;4.624;2023-07-20T01:46:06;76334.09;;;-142.75;100.00
41632;BME280;37452;51.938;4.624;2023-07-20T01:48:31;76340.00;;;-142.75;100.00
41632;BME280;37452;51.938;4.624;2023-07-20T01:50:56;76377.38;;;-142.75;100.00
41632;BME280;37452;51.938;4.624;2023-07-20T01:53:22;76393.13;;;-142.75;100.00
41632;BME280;37452;51.938;4.624;2023-07-20T01:55:47;76408.88;;;-142.75;100.00
41632;BME280;37452;51.938;4.624;2023-07-20T01:58:12;76402.97;;;-142.75;100.00
41632;BME280;37452;51.938;4.624;2023-07-20T02:00:38;76410.84;;;-142.75;100.00
41632;BME280;37452;51.938;4.624;2023-07-20T02:03:04;76410.84;;;-142.75;100.00
41632;BME280;37452;51.938;4.624;2023-07-20T02:05:29;76426.59;;;-142.75;100.00
41632;BME280;37452;51.938;4.624;2023-07-20T02:07:55;76426.59;;;-142.75;100.00
41632;BME280;37452;51.938;4.624;2023-07-20T02:10:20;76420.69;;;-142.75;100.00
41632;BME280;37452;51.938;4.624;2023-07-20T02:12:46;76418.72;;;-142.75;100.00
41632;BME280;37452;51.938;4.624;2023-07-20T02:15:11;76428.56;;;-142.75;100.00
41632;BME280;37452;51.938;4.624;2023-07-20T02:17:38;76432.50;;;-142.75;100.00
41632;BME280;37452;51.938;4.624;2023-07-20T02:20:07;76434.47;;;-142.75;100.00
41632;BME280;37452;51.938;4.624;2023-07-20T02:22:34;76442.34;;;-142.75;100.00
41632;BME280;37452;51.938;4.624;2023-07-20T02:24:59;76438.41;;;-142.75;100.00
41632;BME280;37452;51.938;4.624;2023-07-20T02:27:24;76440.38;;;-142.75;100.00
41632;BME280;37452;51.938;4.624;2023-07-20T02:29:50;76432.50;;;-142.75;100.00
41632;BME280;37452;51.938;4.624;2023-07-20T02:32:15;76432.50;;;-142.75;100.00
41632;BME280;37452;51.938;4.624;2023-07-20T02:34:41;76424.63;;;-142.75;100.00
41632;BME280;37452;51.938;4.624;2023-07-20T02:37:06;76442.34;;;-142.75;100.00
41632;BME280;37452;51.938;4.624;2023-07-20T02:39:31;76436.44;;;-142.75;100.00
41632;BME280;37452;51.938;4.624;2023-07-20T02:41:57;76432.50;;;-142.75;100.00
41632;BME280;37452;51.938;4.624;2023-07-20T02:44:22;76434.47;;;-142.75;100.00
41632;BME280;37452;51.938;4.624;2023-07-20T02:46:48;76436.44;;;-142.75;100.00
41632;BME280;37452;51.938;4.624;2023-07-20T02:49:15;76432.50;;;-142.75;100.00
41632;BME280;37452;51.938;4.624;2023-07-20T02:51:40;76428.56;;;-142.75;100.00
41632;BME280;37452;51.938;4.624;2023-07-20T02:54:06;76434.47;;;-142.75;100.00
41632;BME280;37452;51.938;4.624;2023-07-20T02:56:31;76442.34;;;-142.75;100.00
41632;BME280;37452;51.938;4.624;2023-07-20T02:58:57;76444.31;;;-142.75;100.00
41632;BME280;37452;51.938;4.624;2023-07-20T03:01:22;76444.31;;;-142.75;100.00
41632;BME280;37452;51.938;4.624;2023-07-20T03:03:48;76454.16;;;-142.75;100.00
41632;BME280;37452;51.938;4.624;2023-07-20T03:06:14;76467.94;;;-142.75;100.00
41632;BME280;37452;51.938;4.624;2023-07-20T03:08:40;76479.75;;;-142.75;100.00
41632;BME280;37452;51.938;4.624;2023-07-20T03:11:06;76491.56;;;-142.75;100.00
41632;BME280;37452;51.938;4.624;2023-07-20T03:13:32;76495.50;;;-142.75;100.00
41632;BME280;37452;51.938;4.624;2023-07-20T03:15:57;76503.38;;;-142.75;100.00
41632;BME280;37452;51.938;4.624;2023-07-20T03:18:22;76501.41;;;-142.75;100.00
41632;BME280;37452;51.938;4.624;2023-07-20T03:20:47;76505.34;;;-142.75;100.00
41632;BME280;37452;51.938;4.624;2023-07-20T03:23:14;76511.25;;;-142.75;100.00
41632;BME280;37452;51.938;4.624;2023-07-20T03:25:40;76505.34;;;-142.75;100.00
41632;BME280;37452;51.938;4.624;2023-07-20T03:28:05;76509.28;;;-142.75;100.00
41632;BME280;37452;51.938;4.624;2023-07-20T03:30:31;76503.38;;;-142.75;100.00
41632;BME280;37452;51.938;4.624;2023-07-20T03:32:56;76497.47;;;-142.75;100.00
41632;BME280;37452;51.938;4.624;2023-07-20T03:35:21;76487.63;;;-142.75;100.00
41632;BME280;37452;51.938;4.624;2023-07-20T03:37:47;76491.56;;;-142.75;100.00
41632;BME280;37452;51.938;4.624;2023-07-20T03:40:12;76477.78;;;-142.75;100.00
41632;BME280;37452;51.938;4.624;2023-07-20T03:42:39;76471.88;;;-142.75;100.00
41632;BME280;37452;51.938;4.624;2023-07-20T03:45:05;76464.00;;;-142.75;100.00
41632;BME280;37452;51.938;4.624;2023-07-20T03:47:31;76464.00;;;-142.75;100.00
41632;BME280;37452;51.938;4.624;2023-07-20T03:49:57;76469.91;;;-142.75;100.00
41632;BME280;37452;51.938;4.624;2023-07-20T03:52:22;76483.69;;;-142.75;100.00
41632;BME280;37452;51.938;4.624;2023-07-20T03:54:48;76483.69;;;-142.75;100.00
41632;BME280;37452;51.938;4.624;2023-07-20T03:57:13;76503.38;;;-142.75;100.00
41632;BME280;37452;51.938;4.624;2023-07-20T03:59:39;76513.22;;;-142.75;100.00
41632;BME280;37452;51.938;4.624;2023-07-20T04:02:04;76528.97;;;-142.75;100.00
41632;BME280;37452;51.938;4.624;2023-07-20T04:04:31;76530.91;;;-142.75;100.00
41632;BME280;37452;51.938;4.624;2023-07-20T04:06:56;76542.72;;;-142.75;100.00
41632;BME280;37452;51.938;4.624;2023-07-20T04:09:22;76544.69;;;-142.75;100.00
41632;BME280;37452;51.938;4.624;2023-07-20T04:11:47;76554.53;;;-142.75;100.00
41632;BME280;37452;51.938;4.624;2023-07-20T04:14:12;76554.53;;;-142.75;100.00
41632;BME280;37452;51.938;4.624;2023-07-20T04:16:38;76550.59;;;-142.75;100.00
41632;BME280;37452;51.938;4.624;2023-07-20T04:19:03;76550.59;;;-142.75;100.00
41632;BME280;37452;51.938;4.624;2023-07-20T04:21:29;76532.88;;;-142.75;100.00
41632;BME280;37452;51.938;4.624;2023-07-20T04:23:54;76519.13;;;-142.75;100.00
41632;BME280;37452;51.938;4.624;2023-07-20T04:26:19;76503.38;;;-142.75;100.00
41632;BME280;37452;51.938;4.624;2023-07-20T04:28:45;76483.69;;;-142.75;100.00
41632;BME280;37452;51.938;4.624;2023-07-20T04:31:12;76467.94;;;-142.75;100.00
41632;BME280;37452;51.938;4.624;2023-07-20T04:33:37;76464.00;;;-142.75;100.00
41632;BME280;37452;51.938;4.624;2023-07-20T04:36:03;76452.19;;;-142.75;100.00
41632;BME280;37452;51.938;4.624;2023-07-20T04:38:28;76454.16;;;-142.75;100.00
41632;BME280;37452;51.938;4.624;2023-07-20T04:40:53;76442.34;;;-142.75;100.00
41632;BME280;37452;51.938;4.624;2023-07-20T04:43:19;76442.34;;;-142.75;100.00
41632;BME280;37452;51.938;4.624;2023-07-20T04:45:44;76440.38;;;-142.75;100.00
41632;BME280;37452;51.938;4.624;2023-07-20T04:48:12;76432.50;;;-142.75;100.00
41632;BME280;37452;51.938;4.624;2023-07-20T04:50:39;76422.66;;;-142.75;100.00
41632;BME280;37452;51.938;4.624;2023-07-20T04:53:05;76416.75;;;-142.75;100.00
41632;BME280;37452;51.938;4.624;2023-07-20T04:55:30;76389.19;;;-142.75;100.00
41632;BME280;37452;51.938;4.624;2023-07-20T04:57:55;76369.50;;;-142.75;100.00
41632;BME280;37452;51.938;4.624;2023-07-20T05:00:21;76341.97;;;-142.75;100.00
41632;BME280;37452;51.938;4.624;2023-07-20T05:02:47;76326.22;;;-142.75;100.00
41632;BME280;37452;51.938;4.624;2023-07-20T05:05:14;76316.38;;;-142.75;100.00
41632;BME280;37452;51.938;4.624;2023-07-20T05:07:40;76306.53;;;-142.75;100.00
41632;BME280;37452;51.938;4.624;2023-07-20T05:10:06;76302.59;;;-142.75;100.00
41632;BME280;37452;51.938;4.624;2023-07-20T05:12:31;76298.66;;;-142.75;100.00
41632;BME280;37452;51.938;4.624;2023-07-20T05:14:56;76278.97;;;-142.75;100.00
41632;BME280;37452;51.938;4.624;2023-07-20T05:17:22;76261.25;;;-142.75;100.00
41632;BME280;37452;51.938;4.624;2023-07-20T05:19:47;76243.53;;;-142.75;100.00
41632;BME280;37452;51.938;4.624;2023-07-20T05:22:16;76223.84;;;-142.75;100.00
41632;BME280;37452;51.938;4.624;2023-07-20T05:24:42;76235.66;;;-142.75;100.00
41632;BME280;37452;51.938;4.624;2023-07-20T05:27:07;76227.78;;;-142.75;100.00
41632;BME280;37452;51.938;4.624;2023-07-20T05:29:32;76231.72;;;-142.75;100.00
41632;BME280;37452;51.938;4.624;2023-07-20T05:31:58;76239.59;;;-142.75;100.00
41632;BME280;37452;51.938;4.624;2023-07-20T05:34:23;76219.91;;;-142.75;100.00
41632;BME280;37452;51.938;4.624;2023-07-20T05:36:49;76255.34;;;-142.75;100.00
41632;BME280;37452;51.938;4.624;2023-07-20T05:39:16;76221.88;;;-142.75;100.00
41632;BME280;37452;51.938;4.624;2023-07-20T05:41:42;76214.00;;;-142.75;100.00
41632;BME280;37452;51.938;4.624;2023-07-20T05:44:07;76225.81;;;-142.75;100.00
41632;BME280;37452;51.938;4.624;2023-07-20T05:46:32;76227.78;;;-142.75;100.00
41632;BME280;37452;51.938;4.624;2023-07-20T05:48:58;76231.72;;;-142.75;100.00
41632;BME280;37452;51.938;4.624;2023-07-20T05:51:23;76225.81;;;-142.75;100.00
41632;BME280;37452;51.938;4.624;2023-07-20T05:53:48;76227.78;;;-142.75;100.00
41632;BME280;37452;51.938;4.624;2023-07-20T05:56:14;76223.84;;;-142.75;100.00
41632;BME280;37452;51.938;4.624;2023-07-20T05:58:39;76208.09;;;-142.75;100.00
41632;BME280;37452;51.938;4.624;2023-07-20T06:01:05;76219.91;;;-142.75;100.00
41632;BME280;37452;51.938;4.624;2023-07-20T06:03:33;76227.78;;;-142.75;100.00
41632;BME280;37452;51.938;4.624;2023-07-20T06:06:00;76249.44;;;-142.75;100.00
41632;BME280;37452;51.938;4.624;2023-07-20T06:08:26;76247.47;;;-142.75;100.00
41632;BME280;37452;51.938;4.624;2023-07-20T06:10:51;76241.56;;;-142.75;100.00
41632;BME280;37452;51.938;4.624;2023-07-20T06:13:17;76241.56;;;-142.75;100.00
41632;BME280;37452;51.938;4.624;2023-07-20T06:15:42;76233.69;;;-142.75;100.00
41632;BME280;37452;51.938;4.624;2023-07-20T06:18:08;76243.53;;;-142.75;100.00
41632;BME280;37452;51.938;4.624;2023-07-20T06:20:34;76231.72;;;-142.75;100.00
41632;BME280;37452;51.938;4.624;2023-07-20T06:23:00;76239.59;;;-142.75;100.00
41632;BME280;37452;51.938;4.624;2023-07-20T06:25:25;76251.41;;;-142.75;100.00
41632;BME280;37452;51.938;4.624;2023-07-20T06:27:50;76255.34;;;-142.75;100.00
41632;BME280;37452;51.938;4.624;2023-07-20T06:30:19;76263.22;;;-142.75;100.00
41632;BME280;37452;51.938;4.624;2023-07-20T06:32:44;76271.09;;;-142.75;100.00
41632;BME280;37452;51.938;4.624;2023-07-20T06:35:10;76294.72;;;-142.75;100.00
41632;BME280;37452;51.938;4.624;2023-07-20T06:37:35;76277.00;;;-142.75;100.00
41632;BME280;37452;51.938;4.624;2023-07-20T06:40:04;76298.66;;;-142.75;100.00
41632;BME280;37452;51.938;4.624;2023-07-20T06:42:30;76269.13;;;-142.75;100.00
41632;BME280;37452;51.938;4.624;2023-07-20T06:44:56;76269.13;;;-142.75;100.00
41632;BME280;37452;51.938;4.624;2023-07-20T06:47:22;76249.44;;;-142.75;100.00
41632;BME280;37452;51.938;4.624;2023-07-20T06:49:47;76263.22;;;-142.75;100.00
41632;BME280;37452;51.938;4.624;2023-07-20T06:52:13;76229.75;;;-142.75;100.00
41632;BME280;37452;51.938;4.624;2023-07-20T06:54:38;76257.31;;;-142.75;100.00
41632;BME280;37452;51.938;4.624;2023-07-20T06:57:04;76247.47;;;-142.75;100.00
41632;BME280;37452;51.938;4.624;2023-07-20T06:59:30;76341.97;;;-142.75;100.00
41632;BME280;37452;51.938;4.624;2023-07-20T07:01:55;76312.44;;;-142.75;100.00
41632;BME280;37452;51.938;4.624;2023-07-20T07:04:21;76290.78;;;-142.75;100.00
41632;BME280;37452;51.938;4.624;2023-07-20T07:06:46;76282.91;;;-142.75;100.00
41632;BME280;37452;51.938;4.624;2023-07-20T07:09:11;76271.09;;;-142.75;100.00
41632;BME280;37452;51.938;4.624;2023-07-20T07:11:37;76251.41;;;-142.75;100.00
41632;BME280;37452;51.938;4.624;2023-07-20T07:14:02;76286.84;;;-142.75;100.00
41632;BME280;37452;51.938;4.624;2023-07-20T07:16:28;76251.41;;;-142.75;100.00
41632;BME280;37452;51.938;4.624;2023-07-20T07:18:53;76223.84;;;-142.75;100.00
41632;BME280;37452;51.938;4.624;2023-07-20T07:21:18;76204.16;;;-142.75;100.00
41632;BME280;37452;51.938;4.624;2023-07-20T07:23:45;76196.31;;;-142.75;100.00
41632;BME280;37452;51.938;4.624;2023-07-20T07:26:10;76225.81;;;-142.75;100.00
41632;BME280;37452;51.938;4.624;2023-07-20T07:28:36;76186.47;;;-142.75;100.00
41632;BME280;37452;51.938;4.624;2023-07-20T07:31:04;76154.97;;;-142.75;100.00
41632;BME280;37452;51.938;4.624;2023-07-20T07:33:30;76147.09;;;-142.75;100.00
41632;BME280;37452;51.938;4.624;2023-07-20T07:35:56;76160.88;;;-142.75;100.00
41632;BME280;37452;51.938;4.624;2023-07-20T07:38:21;76135.28;;;-142.75;100.00
41632;BME280;37452;51.938;4.624;2023-07-20T07:40:46;76101.81;;;-142.75;100.00
41632;BME280;37452;51.938;4.624;2023-07-20T07:43:12;76121.50;;;-142.75;100.00
41632;BME280;37452;51.938;4.624;2023-07-20T07:45:39;76074.25;;;-142.75;100.00
41632;BME280;37452;51.938;4.624;2023-07-20T07:48:06;76097.88;;;-142.75;100.00
41632;BME280;37452;51.938;4.624;2023-07-20T07:50:32;76101.81;;;-142.75;100.00
41632;BME280;37452;51.938;4.624;2023-07-20T07:52:57;76154.97;;;-142.75;100.00
41632;BME280;37452;51.938;4.624;2023-07-20T07:55:24;76135.28;;;-142.75;100.00
41632;BME280;37452;51.938;4.624;2023-07-20T07:57:51;76186.47;;;-142.75;100.00
41632;BME280;37452;51.938;4.624;2023-07-20T08:00:16;76125.44;;;-142.75;100.00
41632;BME280;37452;51.938;4.624;2023-07-20T08:02:44;76105.75;;;-142.75;100.00
41632;BME280;37452;51.938;4.624;2023-07-20T08:05:10;76109.69;;;-142.75;100.00
41632;BME280;37452;51.938;4.624;2023-07-20T08:07:36;76093.94;;;-142.75;100.00
41632;BME280;37452;51.938;4.624;2023-07-20T08:10:02;76101.81;;;-142.75;100.00
41632;BME280;37452;51.938;4.624;2023-07-20T08:12:27;76034.91;;;-142.75;100.00
41632;BME280;37452;51.938;4.624;2023-07-20T08:14:53;76011.28;;;-142.75;100.00
41632;BME280;37452;51.938;4.624;2023-07-20T08:17:18;75995.53;;;-142.75;100.00
41632;BME280;37452;51.938;4.624;2023-07-20T08:19:45;75971.91;;;-142.75;100.00
41632;BME280;37452;51.938;4.624;2023-07-20T08:22:11;75956.19;;;-142.75;100.00
41632;BME280;37452;51.938;4.624;2023-07-20T08:24:39;75954.22;;;-142.75;100.00
41632;BME280;37452;51.938;4.624;2023-07-20T08:27:05;75966.00;;;-142.75;100.00
41632;BME280;37452;51.938;4.624;2023-07-20T08:29:31;75934.53;;;-142.75;100.00
41632;BME280;37452;51.938;4.624;2023-07-20T08:31:56;75897.13;;;-142.75;100.00
41632;BME280;37452;51.938;4.624;2023-07-20T08:34:22;75869.56;;;-142.75;100.00
41632;BME280;37452;51.938;4.624;2023-07-20T08:36:47;75885.31;;;-142.75;100.00
41632;BME280;37452;51.938;4.624;2023-07-20T08:39:12;75954.22;;;-142.75;100.00
41632;BME280;37452;51.938;4.624;2023-07-20T08:41:38;75924.69;;;-142.75;100.00
41632;BME280;37452;51.938;4.624;2023-07-20T08:44:04;75912.88;;;-142.75;100.00
41632;BME280;37452;51.938;4.624;2023-07-20T08:46:31;75960.13;;;-142.75;100.00
41632;BME280;37452;51.938;4.624;2023-07-20T08:48:57;75993.56;;;-142.75;100.00
41632;BME280;37452;51.938;4.624;2023-07-20T08:51:23;75956.19;;;-142.75;100.00
41632;BME280;37452;51.938;4.624;2023-07-20T08:53:50;75979.78;;;-142.75;100.00
41632;BME280;37452;51.938;4.624;2023-07-20T08:56:16;75983.72;;;-142.75;100.00
41632;BME280;37452;51.938;4.624;2023-07-20T08:58:43;76003.41;;;-142.75;100.00
41632;BME280;37452;51.938;4.624;2023-07-20T09:01:10;76062.47;;;-142.75;100.00
41632;BME280;37452;51.938;4.624;2023-07-20T09:03:36;76034.91;;;-142.75;100.00
41632;BME280;37452;51.938;4.624;2023-07-20T09:06:04;76056.56;;;-142.75;100.00
41632;BME280;37452;51.938;4.624;2023-07-20T09:08:30;76062.47;;;-142.75;100.00
41632;BME280;37452;51.938;4.624;2023-07-20T09:10:56;76086.06;;;-142.75;100.00
41632;BME280;37452;51.938;4.624;2023-07-20T09:13:21;76078.19;;;-142.75;100.00
41632;BME280;37452;51.938;4.624;2023-07-20T09:15:47;76093.94;;;-142.75;100.00
41632;BME280;37452;51.938;4.624;2023-07-20T09:18:23;76119.53;;;-142.75;100.00
41632;BME280;37452;51.938;4.624;2023-07-20T09:20:49;76164.81;;;-142.75;100.00
41632;BME280;37452;51.938;4.624;2023-07-20T09:23:14;76149.06;;;-142.75;100.00
41632;BME280;37452;51.938;4.624;2023-07-20T09:25:40;76141.19;;;-142.75;100.00
41632;BME280;37452;51.938;4.624;2023-07-20T09:28:06;76135.28;;;-142.75;100.00
41632;BME280;37452;51.938;4.624;2023-07-20T09:30:31;76129.38;;;-142.75;100.00
41632;BME280;37452;51.938;4.624;2023-07-20T09:32:56;76090.00;;;-142.75;100.00
41632;BME280;37452;51.938;4.624;2023-07-20T09:35:22;76038.84;;;-142.75;100.00
41632;BME280;37452;51.938;4.624;2023-07-20T09:38:00;75999.47;;;-142.75;100.00
41632;BME280;37452;51.938;4.624;2023-07-20T09:40:27;75967.97;;;-142.75;100.00
41632;BME280;37452;51.938;4.624;2023-07-20T09:42:54;75956.19;;;-142.75;100.00
41632;BME280;37452;51.938;4.624;2023-07-20T09:45:41;75991.59;;;-142.75;100.00
41632;BME280;37452;51.938;4.624;2023-07-20T09:48:08;76009.31;;;-142.75;100.00
41632;BME280;37452;51.938;4.624;2023-07-20T09:50:34;75991.59;;;-142.75;100.00
41632;BME280;37452;51.938;4.624;2023-07-20T09:53:04;75981.75;;;-142.75;100.00
41632;BME280;37452;51.938;4.624;2023-07-20T09:55:30;75926.66;;;-142.75;100.00
41632;BME280;37452;51.938;4.624;2023-07-20T09:57:56;75920.75;;;-142.75;100.00
41632;BME280;37452;51.938;4.624;2023-07-20T10:00:22;75877.44;;;-142.75;100.00
41632;BME280;37452;51.938;4.624;2023-07-20T10:02:49;75914.84;;;-142.75;100.00
41632;BME280;37452;51.938;4.624;2023-07-20T10:05:17;75948.31;;;-142.75;100.00
41632;BME280;37452;51.938;4.624;2023-07-20T10:07:48;75979.78;;;-142.75;100.00
41632;BME280;37452;51.938;4.624;2023-07-20T10:10:16;75971.91;;;-142.75;100.00
41632;BME280;37452;51.938;4.624;2023-07-20T10:12:47;75956.19;;;-142.75;100.00
41632;BME280;37452;51.938;4.624;2023-07-20T10:15:21;75926.66;;;-142.75;100.00
41632;BME280;37452;51.938;4.624;2023-07-20T10:18:12;75916.81;;;-142.75;100.00
41632;BME280;37452;51.938;4.624;2023-07-20T10:20:40;75928.63;;;-142.75;100.00
41632;BME280;37452;51.938;4.624;2023-07-20T10:23:09;76013.25;;;-142.75;100.00
41632;BME280;37452;51.938;4.624;2023-07-20T10:25:35;75962.09;;;-142.75;100.00
41632;BME280;37452;51.938;4.624;2023-07-20T10:28:07;75956.19;;;-142.75;100.00
41632;BME280;37452;51.938;4.624;2023-07-20T10:30:36;75964.03;;;-142.75;100.00
41632;BME280;37452;51.938;4.624;2023-07-20T10:33:03;75997.50;;;-142.75;100.00
41632;BME280;37452;51.938;4.624;2023-07-20T10:35:29;76025.06;;;-142.75;100.00
41632;BME280;37452;51.938;4.624;2023-07-20T10:37:59;76038.84;;;-142.75;100.00
41632;BME280;37452;51.938;4.624;2023-07-20T10:40:33;75989.63;;;-142.75;100.00
41632;BME280;37452;51.938;4.624;2023-07-20T10:43:05;75979.78;;;-142.75;100.00
41632;BME280;37452;51.938;4.624;2023-07-20T10:48:04;75940.44;;;-142.75;100.00
41632;BME280;37452;51.938;4.624;2023-07-20T10:50:32;75910.91;;;-142.75;100.00
41632;BME280;37452;51.938;4.624;2023-07-20T10:53:24;75910.91;;;-142.75;100.00
41632;BME280;37452;51.938;4.624;2023-07-20T10:56:05;75944.38;;;-142.75;100.00
41632;BME280;37452;51.938;4.624;2023-07-20T10:58:31;75905.00;;;-142.75;100.00
41632;BME280;37452;51.938;4.624;2023-07-20T11:00:58;75865.63;;;-142.75;100.00
41632;BME280;37452;51.938;4.624;2023-07-20T11:03:37;75851.88;;;-142.75;100.00
41632;BME280;37452;51.938;4.624;2023-07-20T11:08:55;75767.22;;;-142.75;95.10
41632;BME280;37452;51.938;4.624;2023-07-20T11:11:27;75727.88;;;-142.75;96.15
41632;BME280;37452;51.938;4.624;2023-07-20T11:13:58;75747.56;;;-142.75;92.80
41632;BME280;37452;51.938;4.624;2023-07-20T11:16:36;75747.56;;;-142.75;90.04
41632;BME280;37452;51.938;4.624;2023-07-20T11:19:06;75792.81;;;-142.75;86.15
41632;BME280;37452;51.938;4.624;2023-07-20T11:21:36;75836.13;;;-142.75;88.59
41632;BME280;37452;51.938;4.624;2023-07-20T11:24:03;75838.09;;;-142.75;98.54
41632;BME280;37452;51.938;4.624;2023-07-20T11:26:29;75838.09;;;-142.75;97.54
41632;BME280;37452;51.938;4.624;2023-07-20T11:28:54;75840.06;;;-142.75;94.98
41632;BME280;37452;51.938;4.624;2023-07-20T11:31:19;75816.44;;;-142.75;92.05
41632;BME280;37452;51.938;4.624;2023-07-20T11:33:46;75788.88;;;-142.75;96.75
41632;BME280;37452;51.938;4.624;2023-07-20T11:36:12;75812.50;;;-142.75;94.15
41632;BME280;37452;51.938;4.624;2023-07-20T11:38:41;75838.09;;;-142.75;96.38
41632;BME280;37452;51.938;4.624;2023-07-20T11:41:07;75836.13;;;-142.75;95.09
41632;BME280;37452;51.938;4.624;2023-07-20T11:43:32;75861.69;;;-142.75;96.22
41632;BME280;37452;51.938;4.624;2023-07-20T11:45:57;75885.31;;;-142.75;98.01
41632;BME280;37452;51.938;4.624;2023-07-20T11:48:23;75867.59;;;-142.75;98.35
41632;BME280;37452;51.938;4.624;2023-07-20T11:50:48;75855.81;;;-142.75;98.65
41632;BME280;37452;51.938;4.624;2023-07-20T11:53:14;75891.22;;;-142.75;100.00
41632;BME280;37452;51.938;4.624;2023-07-20T11:55:41;75897.13;;;-142.75;100.00
41632;BME280;37452;51.938;4.624;2023-07-20T11:58:08;75875.47;;;-142.75;100.00
41632;BME280;37452;51.938;4.624;2023-07-20T12:00:34;75881.38;;;-142.75;97.60
41632;BME280;37452;51.938;4.624;2023-07-20T12:03:00;75873.50;;;-142.75;100.00
41632;BME280;37452;51.938;4.624;2023-07-20T12:05:26;75845.97;;;-142.75;100.00
41632;BME280;37452;51.938;4.624;2023-07-20T12:07:52;75840.06;;;-142.75;94.09
41632;BME280;37452;51.938;4.624;2023-07-20T12:10:27;75782.97;;;-142.75;91.69
41632;BME280;37452;51.938;4.624;2023-07-20T12:12:53;75757.41;;;-142.75;92.35
41632;BME280;37452;51.938;4.624;2023-07-20T12:17:51;75745.59;;;-142.75;92.39
41632;BME280;37452;51.938;4.624;2023-07-20T12:20:33;75743.63;;;-142.75;87.85
41632;BME280;37452;51.938;4.624;2023-07-20T12:23:10;75737.72;;;-142.75;87.56
41632;BME280;37452;51.938;4.624;2023-07-20T12:25:38;75743.63;;;-142.75;88.27
41632;BME280;37452;51.938;4.624;2023-07-20T12:28:09;75786.91;;;-142.75;87.60
41632;BME280;37452;51.938;4.624;2023-07-20T12:30:36;75806.59;;;-142.75;91.23
41632;BME280;37452;51.938;4.624;2023-07-20T12:33:02;75782.97;;;-142.75;90.57
41632;BME280;37452;51.938;4.624;2023-07-20T12:35:28;75771.16;;;-142.75;84.86
41632;BME280;37452;51.938;4.624;2023-07-20T12:37:53;75790.84;;;-142.75;81.64
41632;BME280;37452;51.938;4.624;2023-07-20T12:40:19;75790.84;;;-142.75;89.88
41632;BME280;37452;51.938;4.624;2023-07-20T12:42:44;75794.78;;;-142.75;91.82